Time;durP1;ratioP1;P1;durP2;ratioP2;P2;SDS_P1;SDS_P2;PMS_P1;PMS_P2;Temp;Humidity;BMP_temperature;BMP_pressure;BME280_temperature;BME280_humidity;BME280_pressure;Samples;Min_cycle;Max_cycle;Signal;HPM_P1;HPM_P2
2021/05/23 00:01:08;;;;;;;0.87;0.87;;;10.00;99.90;;;;;;4936810;29;20280;-76
2021/05/23 00:03:34;;;;;;;4.70;1.70;;;10.00;99.90;;;;;;4937747;29;20221;-76
2021/05/23 00:06:01;;;;;;;1.43;0.80;;;10.00;99.90;;;;;;4937752;29;20831;-77
2021/05/23 00:08:27;;;;;;;1.63;1.25;;;10.00;99.90;;;;;;4952439;29;20186;-77
2021/05/23 00:10:54;;;;;;;1.20;0.80;;;10.10;99.90;;;;;;4936407;29;20245;-77
2021/05/23 00:13:24;;;;;;;1.23;0.70;;;10.00;99.90;;;;;;4937383;29;20205;-77
2021/05/23 00:15:51;;;;;;;5.57;1.08;;;10.00;99.90;;;;;;4937628;29;20177;-76
2021/05/23 00:18:17;;;;;;;2.08;0.90;;;9.90;99.90;;;;;;4936236;29;20677;-77
2021/05/23 00:20:43;;;;;;;1.20;0.80;;;9.80;99.90;;;;;;4937558;29;20177;-76
2021/05/23 00:23:10;;;;;;;3.80;1.20;;;9.80;99.90;;;;;;4935814;29;20597;-76
2021/05/23 00:25:37;;;;;;;1.00;0.70;;;9.80;99.90;;;;;;4937417;29;20410;-76
2021/05/23 00:28:02;;;;;;;3.63;1.02;;;9.80;99.90;;;;;;4952191;29;20276;-76
2021/05/23 00:30:28;;;;;;;1.33;0.90;;;9.90;99.90;;;;;;4952150;29;20316;-76
2021/05/23 00:32:54;;;;;;;1.00;0.80;;;9.90;99.90;;;;;;4937047;29;20428;-76
2021/05/23 00:35:20;;;;;;;3.97;1.00;;;9.90;99.90;;;;;;4935941;29;20185;-76
2021/05/23 00:37:45;;;;;;;2.10;1.02;;;9.80;99.90;;;;;;4937191;29;20213;-76
2021/05/23 00:40:12;;;;;;;2.33;0.80;;;9.80;99.90;;;;;;4952700;29;20216;-77
2021/05/23 00:42:38;;;;;;;2.38;0.88;;;9.90;99.90;;;;;;4951989;29;20643;-77
2021/05/23 00:45:06;;;;;;;1.55;0.80;;;9.90;99.90;;;;;;4936745;29;20200;-77
2021/05/23 00:47:31;;;;;;;0.80;0.70;;;10.00;99.90;;;;;;4936766;29;20177;-77
2021/05/23 00:49:57;;;;;;;2.40;0.70;;;10.00;99.90;;;;;;4937195;29;20191;-77
2021/05/23 00:52:23;;;;;;;2.00;1.00;;;9.90;99.90;;;;;;4937079;29;20670;-77
2021/05/23 00:54:49;;;;;;;1.33;0.60;;;9.90;99.90;;;;;;4936683;29;20209;-78
2021/05/23 00:57:14;;;;;;;1.07;0.83;;;9.90;99.90;;;;;;4936948;29;20418;-77
2021/05/23 00:59:40;;;;;;;1.17;1.00;;;10.00;99.90;;;;;;4936692;29;20178;-76
2021/05/23 01:02:06;;;;;;;1.23;0.73;;;10.00;99.90;;;;;;4936781;29;20465;-77
2021/05/23 01:04:34;;;;;;;2.73;1.00;;;10.20;99.90;;;;;;4935195;29;20550;-77
2021/05/23 01:07:00;;;;;;;4.13;0.98;;;10.10;99.90;;;;;;4936812;29;20182;-76
2021/05/23 01:09:25;;;;;;;1.63;1.03;;;10.10;99.90;;;;;;4936720;29;20264;-77
2021/05/23 01:11:51;;;;;;;3.97;0.97;;;10.10;99.90;;;;;;4951783;29;20185;-77
2021/05/23 01:14:41;;;;;;;0.93;0.77;;;10.10;99.90;;;;;;4936366;29;20217;-76
2021/05/23 01:17:10;;;;;;;2.35;0.70;;;10.10;99.90;;;;;;4936547;29;20184;-77
2021/05/23 01:20:03;;;;;;;1.60;0.90;;;10.10;99.90;;;;;;4936398;29;20192;-76
2021/05/23 01:22:59;;;;;;;3.05;0.90;;;10.00;99.90;;;;;;4936428;29;20300;-76
2021/05/23 01:25:27;;;;;;;1.73;0.70;;;10.10;99.90;;;;;;4909027;29;20197;-77
2021/05/23 01:27:55;;;;;;;2.08;0.98;;;10.00;99.90;;;;;;4936249;29;20264;-76
2021/05/23 01:30:26;;;;;;;1.08;0.85;;;9.80;99.90;;;;;;4936327;29;20181;-77
2021/05/23 01:32:56;;;;;;;1.98;0.90;;;9.90;99.90;;;;;;4936395;29;20253;-76
2021/05/23 01:35:31;;;;;;;1.08;0.70;;;9.90;99.90;;;;;;4936323;29;20166;-76
2021/05/23 01:38:00;;;;;;;1.83;1.00;;;9.80;99.90;;;;;;4936213;29;20539;-76
2021/05/23 01:40:31;;;;;;;1.23;0.70;;;10.00;99.90;;;;;;4936339;29;20208;-77
2021/05/23 01:42:57;;;;;;;3.00;1.00;;;9.90;99.90;;;;;;4935926;29;20209;-76
2021/05/23 01:45:24;;;;;;;0.90;0.80;;;9.90;99.90;;;;;;4936169;29;20173;-76
2021/05/23 01:47:50;;;;;;;2.80;0.90;;;9.90;99.90;;;;;;4950775;29;20185;-77
2021/05/23 01:50:16;;;;;;;1.10;0.80;;;10.00;99.90;;;;;;4936118;29;20178;-77
2021/05/23 01:52:50;;;;;;;0.90;0.80;;;10.10;99.90;;;;;;4936149;29;20181;-76
2021/05/23 01:55:16;;;;;;;2.63;1.20;;;10.10;99.90;;;;;;4936082;29;20169;-77
2021/05/23 01:57:42;;;;;;;1.58;0.85;;;10.20;99.90;;;;;;4935825;29;20197;-76
2021/05/23 02:00:09;;;;;;;1.80;1.20;;;10.10;99.90;;;;;;4934902;29;20276;-77
2021/05/23 02:02:35;;;;;;;2.50;0.80;;;10.00;99.90;;;;;;4935947;29;20214;-77
2021/05/23 02:05:02;;;;;;;2.95;1.05;;;10.10;99.90;;;;;;4935938;29;20585;-76
2021/05/23 02:07:27;;;;;;;1.42;0.90;;;10.20;99.90;;;;;;4935965;29;20268;-76
2021/05/23 02:09:55;;;;;;;2.37;1.00;;;10.10;99.90;;;;;;4935831;29;20661;-77
2021/05/23 02:12:21;;;;;;;2.25;0.98;;;10.20;99.90;;;;;;4934683;29;20205;-77
2021/05/23 02:14:47;;;;;;;1.45;1.05;;;10.00;99.90;;;;;;4935467;29;20304;-76
2021/05/23 02:17:13;;;;;;;2.65;1.00;;;10.10;99.90;;;;;;4936001;29;20568;-76
2021/05/23 02:19:39;;;;;;;1.37;0.97;;;10.00;99.90;;;;;;4935773;29;20185;-76
2021/05/23 02:22:04;;;;;;;1.83;1.40;;;9.90;99.90;;;;;;4935681;29;20580;-76
2021/05/23 02:24:30;;;;;;;3.20;1.10;;;9.90;99.90;;;;;;4950127;29;20284;-76
2021/05/23 02:26:55;;;;;;;2.77;1.90;;;9.80;99.90;;;;;;4935845;29;20582;-76
2021/05/23 02:29:21;;;;;;;4.20;1.50;;;9.60;99.90;;;;;;4936097;29;20181;-76
2021/05/23 02:31:46;;;;;;;2.90;1.10;;;9.60;99.90;;;;;;4935702;29;20216;-76
2021/05/23 02:34:12;;;;;;;2.70;1.60;;;9.70;99.90;;;;;;4935325;29;20205;-80
2021/05/23 02:36:38;;;;;;;2.47;1.37;;;9.60;99.90;;;;;;4935681;29;20182;-75
2021/05/23 02:39:04;;;;;;;3.83;1.50;;;9.60;99.90;;;;;;4935876;29;20189;-75
2021/05/23 02:41:29;;;;;;;1.67;1.55;;;9.70;99.90;;;;;;4935646;29;20177;-76
2021/05/23 02:43:55;;;;;;;2.93;1.70;;;9.70;99.90;;;;;;4935516;29;20771;-75
2021/05/23 02:46:21;;;;;;;1.63;1.53;;;9.70;99.90;;;;;;4950236;29;20657;-76
2021/05/23 02:48:46;;;;;;;2.40;2.20;;;9.70;99.90;;;;;;4935645;29;20184;-75
2021/05/23 02:51:12;;;;;;;6.30;1.80;;;9.70;99.90;;;;;;4935611;29;20174;-75
2021/05/23 02:53:37;;;;;;;3.97;1.90;;;9.70;99.90;;;;;;4935215;29;20253;-75
2021/05/23 02:56:03;;;;;;;3.43;1.97;;;9.70;99.90;;;;;;4935645;29;20182;-75
2021/05/23 02:58:29;;;;;;;6.40;1.80;;;9.70;99.90;;;;;;4935473;29;20559;-75
2021/05/23 03:00:54;;;;;;;3.70;1.80;;;9.60;99.90;;;;;;4935533;29;20906;-75
2021/05/23 03:03:20;;;;;;;1.70;1.60;;;9.60;99.90;;;;;;4935075;29;20237;-75
2021/05/23 03:05:46;;;;;;;1.70;1.33;;;9.60;99.90;;;;;;4935457;29;20229;-74
2021/05/23 03:08:12;;;;;;;1.67;1.57;;;9.60;99.90;;;;;;4935426;29;20545;-74
2021/05/23 03:10:51;;;;;;;1.90;1.50;;;9.60;99.90;;;;;;4937150;29;20508;-74
2021/05/23 03:13:17;;;;;;;4.60;2.50;;;9.60;99.90;;;;;;4938701;29;20687;-74
2021/05/23 03:15:43;;;;;;;3.30;1.90;;;9.50;99.90;;;;;;4938605;29;20201;-74
2021/05/23 03:18:09;;;;;;;4.90;1.80;;;9.40;99.90;;;;;;4938901;29;20192;-74
2021/05/23 03:20:37;;;;;;;3.78;2.22;;;9.40;99.90;;;;;;4953587;29;20216;-74
2021/05/23 03:23:04;;;;;;;2.22;1.77;;;9.40;99.90;;;;;;4938371;29;20472;-74
2021/05/23 03:25:30;;;;;;;3.05;2.05;;;9.40;99.90;;;;;;4938520;29;20180;-74
2021/05/23 03:27:57;;;;;;;2.00;1.80;;;9.40;99.90;;;;;;4938711;29;20174;-74
2021/05/23 03:30:31;;;;;;;2.88;1.90;;;9.30;99.90;;;;;;4938440;29;20181;-77
2021/05/23 03:32:57;;;;;;;2.38;1.95;;;9.30;99.90;;;;;;4938148;29;20256;-74
2021/05/23 03:35:23;;;;;;;3.03;2.37;;;9.30;99.90;;;;;;4938397;29;20268;-74
2021/05/23 03:37:49;;;;;;;2.37;2.13;;;9.40;99.90;;;;;;4938582;29;20189;-75
2021/05/23 03:40:16;;;;;;;2.77;2.57;;;9.40;99.90;;;;;;4938313;29;20433;-74
2021/05/23 03:42:46;;;;;;;5.13;2.70;;;9.40;99.90;;;;;;4937998;29;20463;-74
2021/05/23 03:45:14;;;;;;;3.83;2.33;;;9.40;99.90;;;;;;4938109;29;20217;-74
2021/05/23 03:47:40;;;;;;;2.90;2.60;;;9.50;99.90;;;;;;4938097;29;20197;-74
2021/05/23 03:50:09;;;;;;;3.47;2.50;;;9.50;99.90;;;;;;4938036;29;20182;-74
2021/05/23 03:52:35;;;;;;;7.75;2.40;;;9.50;99.90;;;;;;4937888;29;20189;-74
2021/05/23 03:55:01;;;;;;;2.10;1.90;;;9.50;99.90;;;;;;4937659;29;20260;-74
2021/05/23 03:57:26;;;;;;;2.10;1.90;;;9.50;99.90;;;;;;4938009;29;20182;-74
2021/05/23 03:59:52;;;;;;;3.23;2.50;;;9.60;99.90;;;;;;4937895;29;20546;-74
2021/05/23 04:02:17;;;;;;;2.90;1.80;;;9.50;99.90;;;;;;4937777;29;20221;-74
2021/05/23 04:04:48;;;;;;;2.60;1.80;;;9.50;99.90;;;;;;4937497;29;20208;-74
2021/05/23 04:07:19;;;;;;;3.15;2.08;;;9.40;99.90;;;;;;4937700;29;20161;-74
2021/05/23 04:09:45;;;;;;;3.35;1.50;;;9.40;99.90;;;;;;4937764;29;20189;-74
2021/05/23 04:12:21;;;;;;;1.75;1.33;;;9.40;99.90;;;;;;4937707;29;20631;-74
2021/05/23 04:14:46;;;;;;;1.67;1.50;;;9.30;99.90;;;;;;4936076;29;20221;-74
2021/05/23 04:17:12;;;;;;;2.07;1.87;;;9.30;99.90;;;;;;4936318;29;20545;-74
2021/05/23 04:19:37;;;;;;;3.20;2.00;;;9.30;99.90;;;;;;4937475;29;20543;-74
2021/05/23 04:22:04;;;;;;;2.43;2.00;;;9.20;99.90;;;;;;4937076;29;20264;-74
2021/05/23 04:24:33;;;;;;;3.88;1.88;;;9.20;99.90;;;;;;4937332;29;20221;-74
2021/05/23 04:26:58;;;;;;;2.83;2.30;;;9.20;99.90;;;;;;4937343;29;20595;-76
2021/05/23 04:29:24;;;;;;;3.40;2.30;;;9.20;99.90;;;;;;4937399;29;20189;-74
2021/05/23 04:31:50;;;;;;;4.80;2.70;;;9.20;99.90;;;;;;4937342;29;20221;-74
2021/05/23 04:34:15;;;;;;;3.50;2.80;;;9.20;99.90;;;;;;4937102;29;20615;-74
2021/05/23 04:36:41;;;;;;;7.20;2.77;;;9.20;99.90;;;;;;4937257;29;20199;-74
2021/05/23 04:39:06;;;;;;;7.07;3.00;;;9.20;99.90;;;;;;4937079;29;20670;-74
2021/05/23 04:41:33;;;;;;;3.20;2.70;;;9.20;99.90;;;;;;4937070;29;20598;-74
2021/05/23 04:43:59;;;;;;;3.83;2.80;;;9.20;99.90;;;;;;4936717;29;20693;-74
2021/05/23 04:46:24;;;;;;;6.30;2.97;;;9.30;99.90;;;;;;4937109;29;20177;-74
2021/05/23 04:48:50;;;;;;;4.23;2.43;;;9.20;99.90;;;;;;4937064;29;20193;-74
2021/05/23 04:51:16;;;;;;;5.53;2.77;;;9.20;99.90;;;;;;4951581;29;20204;-74
2021/05/23 04:53:41;;;;;;;7.30;2.40;;;9.30;99.90;;;;;;4936718;29;20216;-74
2021/05/23 04:56:07;;;;;;;3.73;2.20;;;9.20;99.90;;;;;;4936905;29;20324;-74
2021/05/23 04:58:32;;;;;;;1.70;1.60;;;9.20;99.90;;;;;;4936825;29;20197;-74
2021/05/23 05:00:58;;;;;;;4.23;2.63;;;9.20;99.90;;;;;;4936860;29;20670;-74
2021/05/23 05:03:23;;;;;;;2.37;1.87;;;9.10;99.90;;;;;;4936449;29;20243;-74
2021/05/23 05:05:49;;;;;;;8.13;3.03;;;9.00;99.90;;;;;;4936875;29;20185;-74
2021/05/23 05:08:15;;;;;;;2.93;2.40;;;9.10;99.90;;;;;;4936911;29;20185;-75
2021/05/23 05:10:40;;;;;;;5.20;3.00;;;9.00;99.90;;;;;;4936734;29;20233;-74
2021/05/23 05:13:06;;;;;;;8.67;3.63;;;9.00;99.90;;;;;;4936203;29;20237;-75
2021/05/23 05:15:32;;;;;;;5.00;2.80;;;9.00;99.90;;;;;;4936457;29;20198;-74
2021/05/23 05:17:58;;;;;;;8.97;3.50;;;9.00;99.90;;;;;;4936688;29;20193;-75
2021/05/23 05:20:24;;;;;;;9.47;3.70;;;9.00;99.90;;;;;;4936583;29;20425;-74
2021/05/23 05:22:52;;;;;;;7.28;3.15;;;8.90;99.90;;;;;;4936185;29;20202;-75
2021/05/23 05:25:17;;;;;;;7.72;4.50;;;9.00;99.90;;;;;;4936594;29;20178;-75
2021/05/23 05:27:43;;;;;;;9.30;3.60;;;9.00;99.90;;;;;;4936389;29;20188;-74
2021/05/23 05:30:10;;;;;;;6.33;4.10;;;8.90;99.90;;;;;;4935169;29;20666;-74
2021/05/23 05:32:35;;;;;;;4.95;3.58;;;9.00;99.90;;;;;;4935677;28;20192;-75
2021/05/23 05:35:02;;;;;;;7.77;4.23;;;8.90;99.90;;;;;;4936029;29;20725;-74
2021/05/23 05:37:27;;;;;;;6.38;3.72;;;9.00;99.90;;;;;;4934893;29;20190;-75
2021/05/23 05:39:53;;;;;;;7.13;3.77;;;9.10;99.90;;;;;;4936238;29;20185;-75
2021/05/23 05:42:19;;;;;;;5.70;4.00;;;9.10;99.90;;;;;;4936419;29;20216;-75
2021/05/23 05:44:45;;;;;;;7.50;4.15;;;9.20;99.90;;;;;;4935925;29;20203;-75
2021/05/23 05:47:11;;;;;;;9.80;4.30;;;9.20;99.90;;;;;;4936246;29;20638;-75
2021/05/23 05:49:37;;;;;;;5.57;3.60;;;9.20;99.90;;;;;;4935868;29;20178;-74
2021/05/23 05:52:06;;;;;;;6.25;2.70;;;9.30;99.90;;;;;;4936052;29;20205;-74
2021/05/23 05:54:33;;;;;;;5.43;2.75;;;9.20;99.90;;;;;;4935722;29;20588;-74
2021/05/23 05:57:00;;;;;;;8.32;2.70;;;9.30;99.90;;;;;;4936063;29;20544;-74
2021/05/23 05:59:26;;;;;;;5.38;2.63;;;9.30;99.90;;;;;;4936002;29;20654;-74
2021/05/23 06:01:51;;;;;;;3.43;2.10;;;9.30;99.90;;;;;;4935807;29;20228;-74
2021/05/23 06:04:17;;;;;;;5.10;2.03;;;9.20;99.90;;;;;;4935581;29;20679;-74
2021/05/23 06:06:42;;;;;;;11.73;2.63;;;9.20;99.90;;;;;;4935929;29;20659;-74
2021/05/23 06:09:08;;;;;;;3.07;2.30;;;9.30;99.90;;;;;;4935897;29;20236;-74
2021/05/23 06:11:34;;;;;;;5.43;2.53;;;9.40;99.90;;;;;;4935865;29;20186;-74
2021/05/23 06:14:00;;;;;;;3.55;2.55;;;9.50;99.90;;;;;;4935515;29;20213;-75
2021/05/23 06:16:25;;;;;;;10.30;3.20;;;9.60;99.90;;;;;;4936132;29;20178;-75
2021/05/23 06:18:51;;;;;;;6.77;2.63;;;9.70;99.90;;;;;;4935980;29;20579;-74
2021/05/23 06:21:16;;;;;;;9.30;2.43;;;9.70;99.90;;;;;;4935979;29;20206;-75
2021/05/23 06:23:42;;;;;;;5.53;2.50;;;9.60;99.90;;;;;;4950173;29;20217;-75
2021/05/23 06:26:13;;;;;;;4.17;3.20;;;9.60;99.90;;;;;;4935686;29;20241;-74
2021/05/23 06:28:39;;;;;;;3.25;1.63;;;9.60;99.90;;;;;;4935706;29;20206;-74
2021/05/23 06:31:05;;;;;;;5.80;1.88;;;9.70;99.90;;;;;;4935589;29;20279;-74
2021/05/23 06:33:30;;;;;;;5.47;2.33;;;9.70;99.90;;;;;;4935379;29;20662;-75
2021/05/23 06:35:56;;;;;;;5.73;2.03;;;9.70;99.90;;;;;;4935644;29;20186;-75
2021/05/23 06:38:22;;;;;;;5.90;2.00;;;9.80;99.90;;;;;;4935703;29;20178;-75
2021/05/23 06:40:47;;;;;;;6.27;1.77;;;9.80;99.90;;;;;;4935890;29;20189;-75
2021/05/23 06:43:13;;;;;;;9.70;1.90;;;9.70;99.90;;;;;;4935185;29;20269;-75
2021/05/23 06:45:39;;;;;;;10.03;2.00;;;9.80;99.90;;;;;;4939240;29;20549;-76
2021/05/23 06:48:05;;;;;;;7.20;1.60;;;9.90;99.90;;;;;;4939256;29;20562;-76
2021/05/23 06:50:31;;;;;;;5.27;2.17;;;10.00;99.90;;;;;;4939106;29;20309;-75
2021/05/23 06:52:56;;;;;;;6.60;1.37;;;10.10;99.90;;;;;;4939272;29;20409;-75
2021/05/23 06:55:22;;;;;;;8.17;1.97;;;10.10;99.90;;;;;;4939146;29;20642;-76
2021/05/23 06:57:48;;;;;;;8.33;2.10;;;10.20;99.90;;;;;;4937821;29;20432;-75
2021/05/23 07:00:14;;;;;;;9.00;1.90;;;10.20;99.90;;;;;;4938968;29;20424;-75
2021/05/23 07:02:40;;;;;;;3.30;2.00;;;10.20;99.90;;;;;;4938877;29;20329;-76
2021/05/23 07:05:06;;;;;;;2.33;1.40;;;10.20;99.90;;;;;;4938855;29;20710;-75
2021/05/23 07:07:32;;;;;;;7.03;2.00;;;10.20;99.90;;;;;;4938993;29;20174;-76
2021/05/23 07:09:58;;;;;;;3.73;1.80;;;10.30;99.90;;;;;;4939164;29;20193;-76
2021/05/23 07:12:24;;;;;;;3.75;1.25;;;10.40;99.90;;;;;;4938895;29;20210;-76
2021/05/23 07:14:50;;;;;;;3.75;1.80;;;10.40;99.90;;;;;;4938318;29;20706;-76
2021/05/23 07:17:15;;;;;;;2.00;1.17;;;10.50;99.90;;;;;;4938962;29;20209;-76
2021/05/23 07:19:41;;;;;;;3.53;1.43;;;10.50;99.90;;;;;;4938648;29;20189;-76
2021/05/23 07:22:07;;;;;;;3.73;1.47;;;10.60;99.90;;;;;;4938546;29;20232;-76
2021/05/23 07:24:32;;;;;;;2.80;1.47;;;10.60;99.90;;;;;;4938155;29;20201;-76
2021/05/23 07:26:58;;;;;;;3.33;1.30;;;10.70;99.90;;;;;;4953346;29;20177;-76
2021/05/23 07:29:24;;;;;;;2.50;1.73;;;10.70;99.90;;;;;;4938639;29;20177;-76
2021/05/23 07:31:49;;;;;;;4.60;1.23;;;10.80;99.90;;;;;;4938456;29;20432;-76
2021/05/23 07:34:15;;;;;;;5.30;1.23;;;10.90;99.90;;;;;;4938185;29;20202;-76
2021/05/23 07:36:41;;;;;;;4.90;1.13;;;10.90;99.90;;;;;;4938359;29;20181;-76
2021/05/23 07:39:06;;;;;;;7.90;1.87;;;10.80;99.90;;;;;;4953104;29;20204;-76
2021/05/23 07:41:32;;;;;;;7.03;1.70;;;10.70;99.90;;;;;;4938161;29;20554;-76
2021/05/23 07:43:58;;;;;;;6.13;1.37;;;10.50;99.90;;;;;;4937742;29;20205;-77
2021/05/23 07:46:23;;;;;;;3.70;1.27;;;10.60;99.90;;;;;;4938232;29;20177;-77
2021/05/23 07:48:49;;;;;;;4.17;1.60;;;10.90;99.90;;;;;;4937997;29;20181;-76
2021/05/23 07:51:15;;;;;;;3.97;1.23;;;11.00;99.90;;;;;;4937965;29;20221;-77
2021/05/23 07:53:40;;;;;;;3.20;1.30;;;11.00;99.90;;;;;;4937793;29;20201;-76
2021/05/23 07:56:06;;;;;;;6.00;1.60;;;11.10;99.90;;;;;;4937148;29;20232;-76
2021/05/23 07:58:32;;;;;;;4.37;1.40;;;11.20;99.90;;;;;;4937868;29;20205;-79
2021/05/23 08:00:57;;;;;;;5.23;1.57;;;11.50;99.90;;;;;;4936631;29;20433;-76
2021/05/23 08:03:26;;;;;;;5.53;1.57;;;11.40;99.90;;;;;;4937473;29;20213;-77
2021/05/23 08:05:52;;;;;;;3.00;1.00;;;11.60;99.90;;;;;;4937792;29;20165;-77
2021/05/23 08:08:17;;;;;;;3.67;1.10;;;11.60;99.90;;;;;;4937774;29;20425;-76
2021/05/23 08:10:43;;;;;;;5.20;1.37;;;11.70;99.90;;;;;;4936393;29;20180;-77
2021/05/23 08:13:09;;;;;;;5.30;1.43;;;11.70;99.90;;;;;;4937434;29;20606;-76
2021/05/23 08:15:34;;;;;;;5.23;1.30;;;11.80;99.90;;;;;;4937535;29;20201;-76
2021/05/23 08:18:00;;;;;;;3.30;1.20;;;11.90;99.90;;;;;;4937989;29;20189;-76
2021/05/23 08:20:26;;;;;;;10.50;1.37;;;12.20;99.90;;;;;;4952156;29;20177;-76
2021/05/23 08:22:52;;;;;;;8.27;1.17;;;12.30;99.90;;;;;;4937376;29;20501;-76
2021/05/23 08:25:18;;;;;;;4.33;1.37;;;12.50;99.90;;;;;;4937470;29;20413;-77
2021/05/23 08:27:44;;;;;;;5.83;1.40;;;12.30;99.90;;;;;;4937740;29;20260;-82
2021/05/23 08:30:11;;;;;;;2.27;1.17;;;12.10;99.90;;;;;;4936158;29;20421;-78
2021/05/23 08:32:37;;;;;;;3.10;1.20;;;12.20;99.90;;;;;;4951865;29;20533;-78
2021/05/23 08:35:07;;;;;;;4.27;1.33;;;12.30;99.90;;;;;;4936839;29;20508;-77
2021/05/23 08:37:33;;;;;;;6.63;1.20;;;12.70;99.90;;;;;;4937172;29;20440;-78
2021/05/23 08:39:58;;;;;;;7.30;1.33;;;12.80;99.90;;;;;;4937168;29;20500;-78
2021/05/23 08:42:24;;;;;;;3.60;1.80;;;13.00;99.90;;;;;;4951767;29;20896;-77
2021/05/23 08:44:49;;;;;;;1.90;1.30;;;13.10;99.90;;;;;;4951420;29;20197;-77
2021/05/23 08:47:15;;;;;;;3.17;1.20;;;13.30;99.90;;;;;;4935350;29;20182;-77
2021/05/23 08:49:44;;;;;;;2.50;1.03;;;13.30;99.90;;;;;;4935454;29;20289;-77
2021/05/23 08:52:10;;;;;;;2.53;0.97;;;13.50;99.90;;;;;;4936457;29;20178;-77
2021/05/23 08:54:41;;;;;;;3.83;1.23;;;13.40;99.90;;;;;;4934826;29;21005;-77
2021/05/23 08:57:08;;;;;;;3.10;1.00;;;13.80;99.90;;;;;;4936423;29;20430;-79
2021/05/23 08:59:33;;;;;;;1.97;0.87;;;13.80;99.90;;;;;;4940002;29;20425;-79
2021/05/23 09:02:04;;;;;;;2.20;0.97;;;13.60;99.90;;;;;;4937816;29;20483;-79
2021/05/23 09:04:30;;;;;;;4.70;1.20;;;13.40;99.90;;;;;;4935575;29;20674;-78
2021/05/23 09:07:01;;;;;;;1.83;0.90;;;13.70;99.90;;;;;;4937060;29;20557;-80
2021/05/23 09:09:27;;;;;;;2.80;1.50;;;13.60;99.90;;;;;;4937152;29;20178;-78
2021/05/23 09:11:55;;;;;;;5.63;0.90;;;13.60;99.90;;;;;;4935740;29;20392;-78
2021/05/23 09:14:35;;;;;;;3.13;0.80;;;13.40;99.90;;;;;;4934852;29;20208;-78
2021/05/23 09:17:01;;;;;;;2.40;0.97;;;13.30;99.90;;;;;;4935284;29;20413;-78
2021/05/23 09:19:37;;;;;;;2.23;0.90;;;13.30;99.90;;;;;;4936427;29;20422;-78
2021/05/23 09:22:11;;;;;;;3.47;0.97;;;13.20;99.90;;;;;;4935314;29;20996;-79
2021/05/23 09:25:08;;;;;;;2.60;1.00;;;13.20;99.90;;;;;;4936300;29;20435;-78
2021/05/23 09:27:34;;;;;;;1.97;0.97;;;13.70;99.90;;;;;;4924396;29;20525;-78
2021/05/23 09:30:18;;;;;;;2.53;1.10;;;14.00;99.90;;;;;;4936337;29;20483;-79
2021/05/23 09:32:46;;;;;;;5.10;1.00;;;14.20;99.90;;;;;;4934770;29;20421;-79
2021/05/23 09:35:13;;;;;;;4.27;1.00;;;14.00;99.90;;;;;;4936333;29;20503;-79
2021/05/23 09:37:39;;;;;;;2.03;1.20;;;13.70;99.90;;;;;;4936347;29;20484;-83
2021/05/23 09:40:24;;;;;;;2.27;0.90;;;13.60;99.90;;;;;;4936367;29;20421;-79
2021/05/23 09:42:53;;;;;;;3.67;1.20;;;13.60;99.90;;;;;;4935954;29;20466;-79
2021/05/23 09:45:20;;;;;;;4.60;1.00;;;13.70;99.90;;;;;;4936071;29;20433;-79
2021/05/23 09:47:57;;;;;;;1.73;0.90;;;13.40;99.90;;;;;;4936072;29;20854;-79
2021/05/23 09:50:32;;;;;;;2.97;1.07;;;13.10;99.90;;;;;;4936329;29;20760;-79
2021/05/23 09:52:57;;;;;;;4.50;1.40;;;13.20;99.90;;;;;;4935773;29;20832;-79
2021/05/23 09:55:23;;;;;;;4.23;1.57;;;13.50;99.90;;;;;;4935816;29;20468;-79
2021/05/23 09:57:49;;;;;;;2.93;1.10;;;13.60;99.90;;;;;;4936104;29;20217;-79
2021/05/23 10:00:15;;;;;;;5.23;1.10;;;13.70;99.90;;;;;;4934762;29;20182;-80
2021/05/23 10:02:54;;;;;;;6.13;1.53;;;14.10;99.90;;;;;;4935940;29;20205;-79
2021/05/23 10:05:20;;;;;;;3.60;1.03;;;14.10;99.90;;;;;;4935810;29;20774;-79
2021/05/23 10:07:46;;;;;;;2.43;1.10;;;14.50;99.90;;;;;;4935789;29;20788;-80
2021/05/23 10:10:13;;;;;;;2.17;1.00;;;14.90;99.90;;;;;;4935898;29;20425;-80
2021/05/23 10:12:39;;;;;;;1.63;1.20;;;15.00;99.90;;;;;;4934676;29;20185;-79
2021/05/23 10:15:06;;;;;;;4.57;1.10;;;15.50;99.90;;;;;;4935567;29;20434;-80
2021/05/23 10:17:35;;;;;;;1.93;0.87;;;15.30;99.90;;;;;;4950543;29;20420;-80
2021/05/23 10:20:04;;;;;;;1.80;1.00;;;15.00;99.90;;;;;;4953291;28;20531;-79
2021/05/23 10:22:34;;;;;;;2.70;1.17;;;14.70;99.90;;;;;;4939668;29;20460;-79
2021/05/23 10:25:03;;;;;;;2.70;1.00;;;14.40;99.90;;;;;;4939443;29;20520;-79
2021/05/23 10:27:33;;;;;;;2.00;1.00;;;14.50;99.90;;;;;;4938215;29;20399;-79
2021/05/23 10:30:02;;;;;;;2.80;1.10;;;14.30;99.90;;;;;;4939559;29;20851;-79
2021/05/23 10:32:30;;;;;;;2.17;1.10;;;14.00;99.90;;;;;;4938247;29;20425;-79
2021/05/23 10:34:57;;;;;;;2.07;1.00;;;13.90;99.90;;;;;;4939158;29;20449;-80
2021/05/23 10:37:29;;;;;;;2.50;0.90;;;14.30;99.90;;;;;;4939408;29;20424;-81
2021/05/23 10:39:55;;;;;;;3.90;1.17;;;14.40;99.90;;;;;;4939286;29;20938;-79
2021/05/23 10:42:23;;;;;;;3.70;1.00;;;14.40;99.90;;;;;;4939181;29;20472;-80
2021/05/23 10:44:54;;;;;;;2.83;1.27;;;14.40;99.90;;;;;;4938909;29;20280;-79
2021/05/23 10:47:22;;;;;;;4.60;1.20;;;14.90;99.90;;;;;;4939294;29;20401;-80
2021/05/23 10:49:57;;;;;;;4.47;1.73;;;14.90;99.90;;;;;;4939116;29;20409;-79
2021/05/23 10:52:27;;;;;;;5.43;1.30;;;14.60;99.90;;;;;;4939188;29;20770;-78
2021/05/23 10:55:16;;;;;;;2.03;1.20;;;14.80;99.90;;;;;;4938807;29;20440;-78
2021/05/23 10:57:46;;;;;;;4.17;1.30;;;14.80;99.90;;;;;;4939086;29;20462;-79
2021/05/23 11:00:18;;;;;;;1.40;1.23;;;14.90;99.90;;;;;;4939128;29;20414;-79
2021/05/23 11:02:44;;;;;;;3.23;1.00;;;14.70;99.90;;;;;;4937735;29;20530;-79
2021/05/23 11:05:36;;;;;;;1.43;1.10;;;14.50;99.90;;;;;;4938887;29;20474;-79
2021/05/23 11:08:09;;;;;;;1.80;1.00;;;15.00;99.90;;;;;;4936365;29;20925;-79
2021/05/23 11:10:46;;;;;;;1.70;0.97;;;15.60;99.90;;;;;;4938949;29;20384;-79
2021/05/23 11:13:30;;;;;;;2.40;1.20;;;15.70;99.90;;;;;;4938608;29;20449;-79
2021/05/23 11:16:07;;;;;;;2.03;0.80;;;15.50;99.90;;;;;;4938837;29;20404;-79
2021/05/23 11:18:33;;;;;;;3.57;1.53;;;15.80;99.90;;;;;;4938777;29;20734;-79
2021/05/23 11:21:00;;;;;;;1.97;1.00;;;16.00;99.90;;;;;;4938462;29;20426;-79
2021/05/23 11:23:28;;;;;;;2.07;0.90;;;16.10;99.90;;;;;;4938036;29;20224;-79
2021/05/23 11:26:17;;;;;;;1.20;0.80;;;16.20;99.90;;;;;;4937349;29;20864;-79
2021/05/23 11:28:54;;;;;;;3.30;1.37;;;16.10;99.90;;;;;;4935864;29;20786;-79
2021/05/23 11:31:31;;;;;;;4.37;1.10;;;15.90;99.90;;;;;;4937346;29;20480;-78
2021/05/23 11:33:58;;;;;;;2.60;1.07;;;15.90;99.90;;;;;;4938107;29;20804;-79
2021/05/23 11:36:27;;;;;;;2.33;0.80;;;16.00;99.90;;;;;;4938242;29;20421;-79
2021/05/23 11:38:57;;;;;;;1.97;0.80;;;16.50;99.90;;;;;;4921699;29;20880;-78
2021/05/23 11:41:43;;;;;;;1.30;0.90;;;16.80;99.90;;;;;;4951184;29;20438;-79
2021/05/23 11:44:12;;;;;;;3.07;1.40;;;16.00;99.90;;;;;;4937978;29;20408;-79
2021/05/23 11:46:39;;;;;;;3.87;1.13;;;15.90;99.90;;;;;;4938267;29;20906;-78
2021/05/23 11:49:04;;;;;;;3.43;1.03;;;16.20;99.90;;;;;;4938274;29;20421;-78
2021/05/23 11:51:33;;;;;;;1.93;0.90;;;17.00;99.90;;;;;;4938186;29;20409;-78
2021/05/23 11:54:03;;;;;;;4.27;1.60;;;16.70;99.90;;;;;;4937639;29;20197;-76
2021/05/23 11:56:31;;;;;;;2.27;1.23;;;16.90;99.90;;;;;;4937843;29;20425;-79
2021/05/23 11:59:02;;;;;;;4.40;1.47;;;17.00;99.90;;;;;;4938052;29;20421;-79
2021/05/23 12:01:31;;;;;;;2.07;0.80;;;17.20;99.90;;;;;;4936635;29;20396;-78
2021/05/23 12:04:06;;;;;;;1.93;1.00;;;17.10;99.90;;;;;;4936115;29;20455;-79
2021/05/23 12:06:34;;;;;;;3.43;1.00;;;17.00;99.90;;;;;;4936384;29;20402;-80
2021/05/23 12:09:20;;;;;;;1.77;0.90;;;16.60;99.90;;;;;;4937828;29;20978;-76
2021/05/23 12:11:49;;;;;;;1.13;0.80;;;16.50;99.90;;;;;;4937707;29;20420;-80
2021/05/23 12:14:28;;;;;;;1.33;0.87;;;16.30;99.90;;;;;;4936043;29;20472;-79
2021/05/23 12:17:11;;;;;;;2.37;1.30;;;16.20;99.90;;;;;;4937867;29;20460;-78
2021/05/23 12:22:46;;;;;;;1.83;0.97;;;16.90;99.90;;;;;;4937567;29;20526;-79
2021/05/23 12:25:14;;;;;;;3.50;0.97;;;16.20;99.90;;;;;;4929952;29;20454;-78
2021/05/23 12:27:40;;;;;;;1.70;0.90;;;15.90;99.90;;;;;;4936493;29;20417;-78
2021/05/23 12:30:13;;;;;;;1.23;0.90;;;15.80;99.90;;;;;;4937372;29;20392;-78
2021/05/23 12:33:05;;;;;;;3.20;1.20;;;16.10;99.90;;;;;;4936132;29;20189;-78
2021/05/23 12:35:32;;;;;;;4.30;1.07;;;16.20;99.90;;;;;;4937269;29;20425;-78
2021/05/23 12:38:01;;;;;;;2.50;1.13;;;16.30;99.90;;;;;;4937544;29;20396;-78
2021/05/23 12:40:40;;;;;;;5.03;1.10;;;16.90;99.90;;;;;;4935852;29;20406;-79
2021/05/23 12:43:13;;;;;;;2.33;1.03;;;17.10;99.90;;;;;;4936260;29;20859;-79
2021/05/23 12:45:41;;;;;;;2.50;1.10;;;17.30;99.90;;;;;;4937334;29;20427;-79
2021/05/23 12:48:11;;;;;;;5.07;1.20;;;17.50;99.90;;;;;;4935787;29;20425;-79
2021/05/23 12:50:49;;;;;;;3.33;1.23;;;18.00;99.90;;;;;;4937045;29;20442;-80
2021/05/23 12:53:23;;;;;;;1.63;0.80;;;17.50;99.90;;;;;;4936628;29;20422;-79
2021/05/23 12:55:48;;;;;;;3.17;1.00;;;17.30;99.90;;;;;;4935658;29;20425;-80
2021/05/23 12:58:14;;;;;;;1.70;1.13;;;17.50;99.90;;;;;;4935780;29;20452;-79